createdAt,value
2022-12-29T00:00:37.183Z,96201.59
2022-12-29T00:03:06.419Z,96209.75
2022-12-29T00:05:35.512Z,96214.50
2022-12-29T00:08:04.461Z,96208.28
2022-12-29T00:10:33.449Z,96209.63
2022-12-29T00:13:20.842Z,96212.03
2022-12-29T00:15:49.755Z,96201.00
2022-12-29T00:18:18.693Z,96200.78
2022-12-29T00:21:06.040Z,96200.34
2022-12-29T00:23:56.543Z,96203.28
2022-12-29T00:26:43.948Z,96201.81
2022-12-29T00:29:31.261Z,96194.56
2022-12-29T00:32:18.643Z,96195.47
2022-12-29T00:35:05.999Z,96194.78
2022-12-29T00:37:53.502Z,96194.34
2022-12-29T00:40:41.029Z,96193.63
2022-12-29T00:43:28.432Z,96191.16
2022-12-29T00:45:57.374Z,96196.25
2022-12-29T00:48:44.858Z,96194.19
2022-12-29T00:51:13.719Z,96196.13
2022-12-29T00:53:43.290Z,96199.28
2022-12-29T00:56:12.287Z,96202.00
2022-12-29T00:58:41.123Z,96197.00
2022-12-29T01:01:11.153Z,96194.72
2022-12-29T01:03:41.000Z,96198.13
2022-12-29T01:06:11.857Z,96195.06
2022-12-29T01:08:40.829Z,96189.84
2022-12-29T01:11:12.458Z,96185.63
2022-12-29T01:13:44.026Z,96201.06
2022-12-29T01:16:13.640Z,96183.25
2022-12-29T01:18:43.908Z,96191.56
2022-12-29T01:21:12.934Z,96187.00
2022-12-29T01:23:41.921Z,96188.50
2022-12-29T01:26:12.978Z,96181.72
2022-12-29T01:28:43.143Z,96189.19
2022-12-29T01:31:13.385Z,96188.97
2022-12-29T01:33:45.012Z,96198.38
2022-12-29T01:36:16.456Z,96186.81
2022-12-29T01:38:46.235Z,96192.03
2022-12-29T01:41:16.795Z,96198.63
2022-12-29T01:44:04.698Z,96193.41
2022-12-29T01:46:51.058Z,96193.72
2022-12-29T01:49:25.166Z,96195.00
2022-12-29T01:52:00.196Z,96192.16
2022-12-29T01:54:38.374Z,96195.53
2022-12-29T01:57:10.925Z,96192.69
2022-12-29T01:59:44.763Z,96198.72
2022-12-29T02:02:15.339Z,96192.22
2022-12-29T02:04:48.249Z,96197.56
2022-12-29T02:07:23.091Z,96194.72
2022-12-29T02:09:54.052Z,96187.69
2022-12-29T02:12:25.326Z,96189.28
2022-12-29T02:15:02.065Z,96184.28
2022-12-29T02:17:44.944Z,96194.16
2022-12-29T02:21:22.264Z,96194.94
2022-12-29T02:24:12.093Z,96193.16
2022-12-29T02:26:55.227Z,96193.22
2022-12-29T02:30:05.641Z,96205.38
2022-12-29T02:32:44.421Z,96195.28
2022-12-29T02:35:27.659Z,96205.34
2022-12-29T02:38:17.818Z,96204.63
2022-12-29T02:41:05.145Z,96201.91
2022-12-29T02:44:01.279Z,96202.41
2022-12-29T02:46:36.071Z,96200.00
2022-12-29T02:49:29.402Z,96198.78
2022-12-29T02:52:31.136Z,96202.84
2022-12-29T02:55:00.967Z,96193.03
2022-12-29T02:57:35.713Z,96193.69
2022-12-29T03:00:16.196Z,96199.06
2022-12-29T03:03:13.338Z,96199.94
2022-12-29T03:05:57.041Z,96205.59
2022-12-29T03:08:37.091Z,96214.28
2022-12-29T03:11:34.061Z,96217.28
2022-12-29T03:14:53.438Z,96217.47
2022-12-29T03:17:48.079Z,96210.56
2022-12-29T03:20:25.569Z,96218.25
2022-12-29T03:23:03.661Z,96216.81
2022-12-29T03:25:41.683Z,96218.78
2022-12-29T03:28:25.916Z,96234.59
2022-12-29T03:30:55.239Z,96226.28
2022-12-29T03:33:29.023Z,96225.56
2022-12-29T03:36:04.513Z,96238.22
2022-12-29T03:38:48.479Z,96238.81
2022-12-29T03:41:23.795Z,96233.75
2022-12-29T03:43:53.548Z,96235.44
2022-12-29T03:46:22.540Z,96235.84
2022-12-29T03:48:51.495Z,96237.81
2022-12-29T03:51:20.561Z,96231.69
2022-12-29T03:53:49.416Z,96234.19
2022-12-29T03:56:18.279Z,96222.53
2022-12-29T03:58:47.609Z,96231.28
2022-12-29T04:01:22.594Z,96233.22
2022-12-29T04:03:52.045Z,96238.00
2022-12-29T04:06:21.068Z,96239.84
2022-12-29T04:09:12.611Z,96228.91
2022-12-29T04:11:46.992Z,96233.94
2022-12-29T04:14:16.288Z,96235.53
2022-12-29T04:16:47.527Z,96233.38
2022-12-29T04:19:16.430Z,96239.59
2022-12-29T04:21:49.289Z,96239.28
2022-12-29T04:24:18.827Z,96229.00
2022-12-29T04:26:50.185Z,96246.50
2022-12-29T04:29:37.429Z,96238.28
2022-12-29T04:32:27.997Z,96240.34
2022-12-29T04:34:57.997Z,96242.13
2022-12-29T04:37:26.920Z,96237.84
2022-12-29T04:39:55.759Z,96251.13
2022-12-29T04:42:24.653Z,96254.25
2022-12-29T04:44:54.334Z,96249.53
2022-12-29T04:47:58.361Z,96258.13
2022-12-29T04:50:51.146Z,96258.91
2022-12-29T04:53:21.544Z,96258.59
2022-12-29T04:55:52.865Z,96263.59
2022-12-29T04:58:23.132Z,96269.88
2022-12-29T05:00:54.499Z,96263.31
2022-12-29T05:03:26.493Z,96269.06
2022-12-29T05:05:57.912Z,96273.53
2022-12-29T05:08:28.582Z,96270.59
2022-12-29T05:11:00.613Z,96266.69
2022-12-29T05:13:29.971Z,96273.22
2022-12-29T05:15:59.819Z,96279.03
2022-12-29T05:18:30.017Z,96281.38
2022-12-29T05:21:00.808Z,96283.19
2022-12-29T05:23:30.562Z,96284.25
2022-12-29T05:26:04.063Z,96282.09
2022-12-29T05:28:47.812Z,96281.28
2022-12-29T05:31:20.814Z,96286.69
2022-12-29T05:33:50.744Z,96284.25
2022-12-29T05:36:20.503Z,96286.03
2022-12-29T05:38:53.052Z,96290.16
2022-12-29T05:41:22.145Z,96288.28
2022-12-29T05:44:08.352Z,96291.44
2022-12-29T05:47:03.355Z,96297.56
2022-12-29T05:49:43.719Z,96293.63
2022-12-29T05:52:32.541Z,96289.50
2022-12-29T05:55:01.501Z,96300.28
2022-12-29T05:57:33.043Z,96294.88
2022-12-29T06:00:13.514Z,96303.06
2022-12-29T06:02:46.662Z,96301.31
2022-12-29T06:05:18.052Z,96317.13
2022-12-29T06:07:47.296Z,96311.19
2022-12-29T06:10:19.356Z,96299.22
2022-12-29T06:13:02.877Z,96318.47
2022-12-29T06:15:37.612Z,96318.31
2022-12-29T06:18:12.614Z,96325.31
2022-12-29T06:20:46.900Z,96325.44
2022-12-29T06:23:18.186Z,96321.13
2022-12-29T06:25:49.977Z,96328.91
2022-12-29T06:28:19.355Z,96332.66
2022-12-29T06:30:49.590Z,96330.88
2022-12-29T06:33:20.157Z,96336.66
2022-12-29T06:35:49.145Z,96331.66
2022-12-29T06:38:18.029Z,96336.66
2022-12-29T06:40:47.244Z,96337.41
2022-12-29T06:43:21.959Z,96340.28
2022-12-29T06:46:26.122Z,96348.63
2022-12-29T06:48:55.202Z,96347.78
2022-12-29T06:51:24.080Z,96358.53
2022-12-29T06:53:52.936Z,96353.75
2022-12-29T06:56:21.866Z,96363.66
2022-12-29T06:58:51.268Z,96364.38
2022-12-29T07:01:20.842Z,96356.72
2022-12-29T07:03:50.481Z,96365.84
2022-12-29T07:06:19.312Z,96360.34
2022-12-29T07:08:48.277Z,96375.78
2022-12-29T07:11:17.355Z,96381.78
2022-12-29T07:13:46.235Z,96379.59
2022-12-29T07:16:15.086Z,96387.47
2022-12-29T07:18:44.179Z,96389.28
2022-12-29T07:21:13.496Z,96392.63
2022-12-29T07:23:42.623Z,96396.53
2022-12-29T07:26:15.042Z,96396.78
2022-12-29T07:28:43.995Z,96404.41
2022-12-29T07:31:18.755Z,96404.84
2022-12-29T07:33:48.206Z,96408.41
2022-12-29T07:36:19.225Z,96411.53
2022-12-29T07:38:48.097Z,96412.28
2022-12-29T07:41:16.923Z,96406.66
2022-12-29T07:43:49.705Z,96411.03
2022-12-29T07:46:55.051Z,96412.19
2022-12-29T07:49:26.149Z,96413.88
2022-12-29T07:51:55.188Z,96413.75
2022-12-29T07:54:24.288Z,96425.44
2022-12-29T07:56:53.335Z,96414.06
2022-12-29T07:59:22.199Z,96426.00
2022-12-29T08:01:52.149Z,96438.44
2022-12-29T08:04:21.785Z,96443.38
2022-12-29T08:06:50.727Z,96447.50
2022-12-29T08:09:22.724Z,96452.66
2022-12-29T08:11:53.386Z,96447.66
2022-12-29T08:14:22.793Z,96450.81
2022-12-29T08:16:52.058Z,96449.16
2022-12-29T08:19:20.989Z,96457.38
2022-12-29T08:21:49.850Z,96463.25
2022-12-29T08:24:18.704Z,96464.66
2022-12-29T08:26:47.576Z,96473.56
2022-12-29T08:29:16.411Z,96470.88
2022-12-29T08:31:45.744Z,96478.38
2022-12-29T08:34:14.681Z,96479.06
2022-12-29T08:36:43.531Z,96494.19
2022-12-29T08:39:12.373Z,96493.41
2022-12-29T08:41:41.444Z,96507.03
2022-12-29T08:44:10.402Z,96512.97
2022-12-29T08:46:39.387Z,96518.63
2022-12-29T08:49:08.276Z,96522.53
2022-12-29T08:51:37.237Z,96528.44
2022-12-29T08:54:06.222Z,96529.56
2022-12-29T08:56:35.400Z,96534.72
2022-12-29T08:59:04.517Z,96529.59
2022-12-29T09:01:38.066Z,96534.13
2022-12-29T09:04:16.927Z,96542.91
2022-12-29T09:06:48.557Z,96547.22
2022-12-29T09:09:17.683Z,96556.53
2022-12-29T09:11:47.183Z,96564.25
2022-12-29T09:14:16.225Z,96560.25
2022-12-29T09:17:03.375Z,96570.34
2022-12-29T09:19:33.009Z,96581.84
2022-12-29T09:22:01.818Z,96575.81
2022-12-29T09:24:30.790Z,96588.09
2022-12-29T09:26:59.811Z,96594.78
2022-12-29T09:29:28.609Z,96596.72
2022-12-29T09:31:57.481Z,96600.81
2022-12-29T09:34:26.400Z,96606.69
2022-12-29T09:36:55.755Z,96615.97
2022-12-29T09:39:26.015Z,96605.06
2022-12-29T09:42:08.765Z,96611.16
2022-12-29T09:45:08.746Z,96617.84
2022-12-29T09:47:38.684Z,96615.91
2022-12-29T09:50:25.530Z,96625.44
2022-12-29T09:53:06.991Z,96625.50
2022-12-29T09:55:47.953Z,96626.59
2022-12-29T09:58:31.890Z,96634.06
2022-12-29T10:01:06.910Z,96630.75
2022-12-29T10:03:42.010Z,96640.03
2022-12-29T10:06:28.374Z,96634.44
2022-12-29T10:09:18.237Z,96644.53
2022-12-29T10:12:11.271Z,96642.00
2022-12-29T10:15:20.354Z,96650.25
2022-12-29T10:18:28.619Z,96650.09
2022-12-29T10:21:11.593Z,96642.56
2022-12-29T10:24:01.596Z,96654.66
2022-12-29T10:26:42.964Z,96650.69
2022-12-29T10:29:26.175Z,96646.69
2022-12-29T10:32:02.337Z,96647.53
2022-12-29T10:34:44.272Z,96647.75
2022-12-29T10:37:26.481Z,96664.84
2022-12-29T10:40:01.285Z,96671.50
2022-12-29T10:42:59.670Z,96668.31
2022-12-29T10:45:32.634Z,96675.75
2022-12-29T10:48:24.839Z,96674.00
2022-12-29T10:51:01.974Z,96691.88
2022-12-29T10:53:37.477Z,96701.91
2022-12-29T10:56:18.164Z,96692.16
2022-12-29T10:58:50.395Z,96686.06
2022-12-29T11:01:22.103Z,96699.22
2022-12-29T11:04:04.427Z,96714.06
2022-12-29T11:06:33.947Z,96723.31
2022-12-29T11:09:22.290Z,96718.53
2022-12-29T11:11:51.175Z,96731.34
2022-12-29T11:14:27.484Z,96729.16
2022-12-29T11:17:01.733Z,96733.97
2022-12-29T11:19:37.469Z,96741.00
2022-12-29T11:22:29.011Z,96749.59
2022-12-29T11:25:12.650Z,96747.00
2022-12-29T11:28:00.357Z,96756.97
2022-12-29T11:30:32.542Z,96756.38
2022-12-29T11:33:06.203Z,96758.56
2022-12-29T11:35:42.736Z,96768.25
2022-12-29T11:38:54.368Z,96769.81
2022-12-29T11:41:30.439Z,96769.03
2022-12-29T11:44:03.075Z,96765.41
2022-12-29T11:46:36.438Z,96774.59
2022-12-29T11:49:06.420Z,96773.16
2022-12-29T11:51:49.256Z,96766.31
2022-12-29T11:54:32.168Z,96769.28
2022-12-29T11:57:13.147Z,96762.31
2022-12-29T11:59:45.171Z,96773.13
2022-12-29T12:02:17.889Z,96775.50
2022-12-29T12:04:47.363Z,96778.50
2022-12-29T12:07:21.244Z,96775.69
2022-12-29T12:10:04.961Z,96783.22
2022-12-29T12:12:53.364Z,96788.84
2022-12-29T12:15:44.979Z,96785.19
2022-12-29T12:18:15.105Z,96795.47
2022-12-29T12:21:19.139Z,96797.69
2022-12-29T12:23:51.041Z,96800.94
2022-12-29T12:26:30.022Z,96797.97
2022-12-29T12:29:11.873Z,96807.81
2022-12-29T12:31:53.237Z,96807.75
2022-12-29T12:34:37.958Z,96804.31
2022-12-29T12:37:31.821Z,96821.28
2022-12-29T12:40:31.944Z,96821.44
2022-12-29T12:43:07.739Z,96827.22
2022-12-29T12:45:57.779Z,96818.84
2022-12-29T12:48:29.642Z,96822.44
2022-12-29T12:51:39.095Z,96824.91
2022-12-29T12:54:38.823Z,96817.38
2022-12-29T12:57:16.462Z,96818.84
2022-12-29T13:00:10.767Z,96816.94
2022-12-29T13:02:59.470Z,96824.78
2022-12-29T13:05:49.866Z,96826.63
2022-12-29T13:08:31.325Z,96813.03
2022-12-29T13:11:18.528Z,96813.41
2022-12-29T13:14:02.492Z,96816.41
2022-12-29T13:16:44.635Z,96817.06
2022-12-29T13:19:30.096Z,96824.13
2022-12-29T13:22:24.852Z,96824.56
2022-12-29T13:25:15.147Z,96821.56
2022-12-29T13:28:04.927Z,96830.00
2022-12-29T13:30:46.808Z,96841.41
2022-12-29T13:33:36.423Z,96824.00
2022-12-29T13:36:25.533Z,96849.22
2022-12-29T13:39:23.821Z,96858.59
2022-12-29T13:41:56.165Z,96854.75
2022-12-29T13:44:36.982Z,96858.34
2022-12-29T13:47:30.343Z,96860.56
2022-12-29T13:50:01.768Z,96865.91
2022-12-29T13:52:42.010Z,96868.31
2022-12-29T13:55:27.955Z,96870.69
2022-12-29T13:58:20.980Z,96879.50
2022-12-29T14:01:06.017Z,96874.31
2022-12-29T14:03:47.231Z,96879.09
2022-12-29T14:06:27.321Z,96883.91
2022-12-29T14:09:06.231Z,96886.50
2022-12-29T14:11:38.365Z,96888.91
2022-12-29T14:16:54.538Z,96889.47
2022-12-29T14:19:30.141Z,96891.88
2022-12-29T14:22:06.170Z,96890.28
2022-12-29T14:24:37.929Z,96890.28
2022-12-29T14:27:12.659Z,96886.09
2022-12-29T14:29:41.554Z,96893.28
2022-12-29T14:34:53.195Z,96894.94
2022-12-29T14:37:29.190Z,96899.34
2022-12-29T14:40:25.544Z,96905.94
2022-12-29T14:42:57.137Z,96913.34
2022-12-29T14:45:32.272Z,96910.75
2022-12-29T14:48:01.696Z,96915.53
2022-12-29T14:50:45.747Z,96915.31
2022-12-29T14:53:45.307Z,96915.53
2022-12-29T14:56:16.993Z,96922.56
2022-12-29T14:59:04.785Z,96921.34
2022-12-29T15:01:34.915Z,96930.16
2022-12-29T15:04:32.092Z,96927.97
2022-12-29T15:07:04.905Z,96937.56
2022-12-29T15:09:50.765Z,96938.59
2022-12-29T15:12:48.447Z,96935.78
2022-12-29T15:15:26.491Z,96937.38
2022-12-29T15:17:55.878Z,96939.63
2022-12-29T15:20:33.375Z,96940.06
2022-12-29T15:23:17.569Z,96935.88
2022-12-29T15:25:58.732Z,96928.66
2022-12-29T15:28:29.329Z,96939.69
2022-12-29T15:31:05.101Z,96930.28
2022-12-29T15:33:41.436Z,96934.69
2022-12-29T15:36:25.277Z,96947.31
2022-12-29T15:38:55.051Z,96945.53
2022-12-29T15:42:01.836Z,96945.31
2022-12-29T15:44:41.397Z,96930.69
2022-12-29T15:47:22.627Z,96948.31
2022-12-29T15:49:54.752Z,96945.75
2022-12-29T15:52:25.601Z,96939.16
2022-12-29T15:54:55.534Z,96950.75
2022-12-29T15:57:27.274Z,96949.16
2022-12-29T15:59:56.986Z,96952.97
2022-12-29T16:02:28.290Z,96958.78
2022-12-29T16:07:58.406Z,96965.78
2022-12-29T16:10:38.071Z,96967.78
2022-12-29T16:13:24.215Z,96970.38
2022-12-29T16:16:02.046Z,96964.56
2022-12-29T16:18:36.961Z,96963.56
2022-12-29T16:21:16.148Z,96982.78
2022-12-29T16:23:50.742Z,96982.34
2022-12-29T16:26:22.791Z,96980.16
2022-12-29T16:29:06.397Z,96981.75
2022-12-29T16:32:06.467Z,96984.16
2022-12-29T16:34:39.382Z,96982.34
2022-12-29T16:37:33.782Z,96979.53
2022-12-29T16:40:28.416Z,96983.34
2022-12-29T16:43:05.329Z,96991.34
2022-12-29T16:45:49.425Z,96995.56
2022-12-29T16:48:18.399Z,96991.34
2022-12-29T16:50:48.329Z,96996.78
2022-12-29T16:53:22.169Z,96989.38
2022-12-29T16:55:53.190Z,96988.75
2022-12-29T16:58:25.900Z,97005.19
2022-12-29T17:01:01.334Z,97001.19
2022-12-29T17:03:40.284Z,96997.19
2022-12-29T17:06:16.630Z,97010.22
2022-12-29T17:08:46.344Z,97016.22
2022-12-29T17:11:59.466Z,97019.22
2022-12-29T17:14:48.426Z,97012.41
2022-12-29T17:17:21.597Z,97005.22
2022-12-29T17:19:56.574Z,97016.63
2022-12-29T17:22:27.695Z,97017.47
2022-12-29T17:24:59.642Z,97012.66
2022-12-29T17:27:43.819Z,97017.03
2022-12-29T17:30:14.666Z,97017.25
2022-12-29T17:32:45.333Z,97010.47
2022-12-29T17:35:19.658Z,97022.63
2022-12-29T17:37:50.101Z,97029.63
2022-12-29T17:40:25.376Z,97030.03
2022-12-29T17:42:56.865Z,97034.22
2022-12-29T17:45:28.897Z,97036.44
2022-12-29T17:48:02.161Z,97043.06
2022-12-29T17:50:32.332Z,97043.66
2022-12-29T17:53:04.599Z,97042.06
2022-12-29T17:55:38.151Z,97039.66
2022-12-29T17:58:27.855Z,97049.66
2022-12-29T18:01:00.571Z,97047.28
2022-12-29T18:03:33.013Z,97043.69
2022-12-29T18:06:03.160Z,97041.66
2022-12-29T18:08:33.258Z,97039.25
2022-12-29T18:11:02.943Z,97043.88
2022-12-29T18:13:43.988Z,97033.03
2022-12-29T18:16:15.176Z,97045.63
2022-12-29T18:18:44.463Z,97048.00
2022-12-29T18:21:25.127Z,97049.16
2022-12-29T18:23:53.932Z,97051.34
2022-12-29T18:26:32.177Z,97060.91
2022-12-29T18:29:01.108Z,97062.91
2022-12-29T18:31:32.853Z,97066.25
2022-12-29T18:34:03.913Z,97067.47
2022-12-29T18:36:32.776Z,97075.81
2022-12-29T18:39:01.546Z,97076.22
2022-12-29T18:41:30.711Z,97079.81
2022-12-29T18:44:00.839Z,97081.19
2022-12-29T18:46:30.651Z,97077.75
2022-12-29T18:48:59.547Z,97088.94
2022-12-29T18:51:28.530Z,97093.72
2022-12-29T18:53:57.388Z,97090.06
2022-12-29T18:56:26.309Z,97095.47
2022-12-29T18:58:56.149Z,97099.44
2022-12-29T19:01:31.923Z,97101.63
2022-12-29T19:04:01.103Z,97107.38
2022-12-29T19:06:30.025Z,97110.53
2022-12-29T19:08:58.849Z,97109.31
2022-12-29T19:11:27.733Z,97113.09
2022-12-29T19:13:56.522Z,97117.84
2022-12-29T19:16:26.309Z,97121.00
2022-12-29T19:19:08.478Z,97124.16
2022-12-29T19:21:38.945Z,97121.94
2022-12-29T19:24:07.829Z,97121.88
2022-12-29T19:26:39.060Z,97127.25
2022-12-29T19:29:14.223Z,97132.66
2022-12-29T19:31:43.545Z,97132.59
2022-12-29T19:34:17.134Z,97134.31
2022-12-29T19:36:47.030Z,97139.88
2022-12-29T19:39:15.985Z,97149.00
2022-12-29T19:41:44.904Z,97149.75
2022-12-29T19:44:13.715Z,97161.47
2022-12-29T19:46:42.644Z,97152.31
2022-12-29T19:49:11.678Z,97161.88
2022-12-29T19:51:40.707Z,97158.25
2022-12-29T19:54:09.552Z,97164.75
2022-12-29T19:56:38.547Z,97165.13
2022-12-29T19:59:07.427Z,97157.72
2022-12-29T20:01:37.238Z,97151.84
2022-12-29T20:04:06.568Z,97165.03
2022-12-29T20:06:35.427Z,97171.25
2022-12-29T20:09:04.382Z,97163.63
2022-12-29T20:11:33.311Z,97160.59
2022-12-29T20:14:02.070Z,97160.34
2022-12-29T20:16:30.965Z,97156.50
2022-12-29T20:19:00.002Z,97164.66
2022-12-29T20:21:28.951Z,97172.94
2022-12-29T20:23:58.013Z,97174.66
2022-12-29T20:26:30.699Z,97176.81
2022-12-29T20:29:00.703Z,97176.19
2022-12-29T20:31:32.894Z,97172.97
2022-12-29T20:34:01.776Z,97173.97
2022-12-29T20:36:34.163Z,97158.59
2022-12-29T20:39:07.096Z,97160.94
2022-12-29T20:41:37.135Z,97167.09
2022-12-29T20:44:06.156Z,97174.84
2022-12-29T20:46:41.244Z,97168.44
2022-12-29T20:49:12.896Z,97170.22
2022-12-29T20:54:38.629Z,97159.69
2022-12-29T20:57:09.026Z,97177.63
2022-12-29T20:59:38.451Z,97172.63
2022-12-29T21:02:08.309Z,97178.50
2022-12-29T21:05:12.782Z,97186.66
2022-12-29T21:07:26.394Z,97192.72
2022-12-29T21:14:28.839Z,97206.38
2022-12-29T21:16:57.700Z,97205.56
2022-12-29T21:19:26.538Z,97205.38
2022-12-29T21:21:55.357Z,97205.22
2022-12-29T21:24:24.165Z,97217.16
2022-12-29T21:26:53.050Z,97216.75
2022-12-29T21:29:21.965Z,97219.03
2022-12-29T21:31:50.774Z,97235.72
2022-12-29T21:34:19.765Z,97225.72
2022-12-29T21:36:48.624Z,97231.53
2022-12-29T21:39:18.726Z,97232.84
2022-12-29T21:41:48.195Z,97232.06
2022-12-29T21:44:35.359Z,97238.84
2022-12-29T21:47:04.399Z,97232.75
2022-12-29T21:49:33.193Z,97236.34
2022-12-29T21:52:02.079Z,97240.09
2022-12-29T21:54:50.039Z,97247.41
2022-12-29T21:57:38.518Z,97244.34
2022-12-29T22:00:28.933Z,97247.47
2022-12-29T22:03:22.645Z,97262.72
2022-12-29T22:06:11.378Z,97265.00
2022-12-29T22:08:59.190Z,97269.75
2022-12-29T22:11:46.649Z,97272.66
2022-12-29T22:14:15.541Z,97279.00
2022-12-29T22:16:44.317Z,97277.06
2022-12-29T22:19:13.450Z,97278.22
2022-12-29T22:21:42.388Z,97275.63
2022-12-29T22:24:11.252Z,97266.25
2022-12-29T22:26:40.006Z,97264.66
2022-12-29T22:29:08.854Z,97272.44
2022-12-29T22:31:37.644Z,97277.59
2022-12-29T22:34:06.590Z,97277.78
2022-12-29T22:36:35.571Z,97278.91
2022-12-29T22:39:04.403Z,97291.03
2022-12-29T22:41:33.193Z,97295.59
2022-12-29T22:44:02.072Z,97307.25
2022-12-29T22:46:30.966Z,97313.72
2022-12-29T22:48:59.771Z,97319.06
2022-12-29T22:51:28.636Z,97319.38
2022-12-29T22:53:57.443Z,97321.53
2022-12-29T22:56:26.252Z,97322.84
2022-12-29T22:58:55.072Z,97319.59
2022-12-29T23:01:25.215Z,97329.31
2022-12-29T23:04:10.964Z,97328.84
2022-12-29T23:06:43.295Z,97334.34
2022-12-29T23:09:18.589Z,97339.69
2022-12-29T23:11:48.639Z,97350.19
2022-12-29T23:14:18.167Z,97356.34
2022-12-29T23:16:47.389Z,97352.31
2022-12-29T23:19:16.751Z,97358.78
2022-12-29T23:21:45.646Z,97366.53
2022-12-29T23:24:15.076Z,97367.66
2022-12-29T23:26:48.857Z,97361.69
2022-12-29T23:29:20.108Z,97365.25
2022-12-29T23:31:49.782Z,97362.00
2022-12-29T23:34:19.113Z,97368.31
2022-12-29T23:36:47.932Z,97376.25
2022-12-29T23:39:23.944Z,97379.16
2022-12-29T23:41:53.233Z,97381.56
2022-12-29T23:44:22.059Z,97375.63
2022-12-29T23:46:51.008Z,97384.31
2022-12-29T23:49:20.169Z,97390.28
2022-12-29T23:51:49.213Z,97383.66
2022-12-29T23:54:18.018Z,97389.88
2022-12-29T23:56:46.832Z,97385.66
2022-12-29T23:59:15.672Z,97400.38
